createdAt,value
2023-01-13T00:05:00.888Z,102250.88
2023-01-13T00:10:11.587Z,102240.88
2023-01-13T00:15:17.504Z,102230.06
2023-01-13T00:20:22.302Z,102224.69
2023-01-13T00:30:50.159Z,102221.03
2023-01-13T00:36:17.960Z,102212.47
2023-01-13T00:41:27.308Z,102213.00
2023-01-13T00:46:35.193Z,102188.31
2023-01-13T00:51:37.157Z,102194.81
2023-01-13T00:56:44.515Z,102196.75
2023-01-13T01:01:57.429Z,102197.81
2023-01-13T01:07:04.267Z,102174.59
2023-01-13T01:12:15.905Z,102184.06
2023-01-13T01:17:26.101Z,102186.59
2023-01-13T01:22:28.076Z,102171.34
2023-01-13T01:38:20.096Z,102184.50
2023-01-13T01:43:59.992Z,102193.72
2023-01-13T01:49:18.728Z,102197.50
2023-01-13T01:54:31.195Z,102205.47
2023-01-13T01:59:38.598Z,102201.53
2023-01-13T02:04:58.241Z,102195.94
2023-01-13T02:10:11.002Z,102202.44
2023-01-13T02:21:09.271Z,102197.22
2023-01-13T02:26:50.061Z,102193.44
2023-01-13T02:32:12.908Z,102191.34
2023-01-13T02:37:27.615Z,102182.78
2023-01-13T02:43:04.420Z,102175.28
2023-01-13T02:48:09.204Z,102174.06
2023-01-13T02:53:18.288Z,102176.00
2023-01-13T02:58:24.533Z,102176.91
2023-01-13T03:03:26.395Z,102182.78
2023-01-13T03:08:42.855Z,102169.69
2023-01-13T03:13:53.641Z,102166.59
2023-01-13T03:19:15.396Z,102171.41
2023-01-13T03:24:37.899Z,102178.50
2023-01-13T03:30:16.398Z,102182.88
2023-01-13T03:35:27.939Z,102187.28
2023-01-13T03:40:35.609Z,102191.03
2023-01-13T03:45:39.915Z,102188.31
2023-01-13T03:50:47.387Z,102186.66
2023-01-13T03:55:55.884Z,102200.88
2023-01-13T04:01:00.331Z,102202.97
2023-01-13T04:06:10.855Z,102205.06
2023-01-13T04:11:19.528Z,102214.66
2023-01-13T04:16:24.034Z,102214.88
2023-01-13T04:21:26.617Z,102217.81
2023-01-13T04:26:28.534Z,102226.38
2023-01-13T04:31:30.409Z,102216.13
2023-01-13T04:36:32.256Z,102209.63
2023-01-13T04:41:54.058Z,102199.38
2023-01-13T04:47:11.672Z,102201.25
2023-01-13T04:52:18.502Z,102210.47
2023-01-13T04:57:22.760Z,102223.81
2023-01-13T05:08:54.512Z,102206.91
2023-01-13T05:14:19.177Z,102230.97
2023-01-13T05:19:33.227Z,102229.31
2023-01-13T05:24:56.126Z,102218.88
2023-01-13T05:30:00.200Z,102208.22
2023-01-13T05:35:03.012Z,102209.88
2023-01-13T05:40:24.035Z,102220.13
2023-01-13T05:45:28.047Z,102224.78
2023-01-13T05:50:33.505Z,102235.28
2023-01-13T05:55:42.775Z,102239.28
2023-01-13T06:00:46.203Z,102245.16
2023-01-13T06:05:51.469Z,102255.84
2023-01-13T06:10:54.327Z,102258.34
2023-01-13T06:16:12.901Z,102262.56
2023-01-13T06:21:22.857Z,102257.16
2023-01-13T06:26:40.343Z,102259.25
2023-01-13T06:31:50.820Z,102267.81
2023-01-13T06:36:56.341Z,102290.59
2023-01-13T06:42:29.650Z,102289.31
2023-01-13T06:47:32.848Z,102289.72
2023-01-13T06:52:40.375Z,102287.22
2023-01-13T06:58:00.171Z,102288.88
2023-01-13T07:03:18.939Z,102302.69
2023-01-13T07:08:23.297Z,102307.28
2023-01-13T07:13:44.390Z,102302.25
2023-01-13T07:18:50.323Z,102323.97
2023-01-13T07:23:53.222Z,102340.69
2023-01-13T07:28:56.346Z,102329.38
2023-01-13T07:34:03.191Z,102334.81
2023-01-13T07:39:08.163Z,102316.81
2023-01-13T07:44:12.345Z,102324.13
2023-01-13T07:49:14.429Z,102324.72
2023-01-13T07:54:19.442Z,102337.00
2023-01-13T07:59:21.973Z,102345.53
2023-01-13T08:04:30.643Z,102357.22
2023-01-13T08:09:34.054Z,102352.38
2023-01-13T08:14:36.590Z,102360.31
2023-01-13T08:19:42.145Z,102380.97
2023-01-13T08:24:47.651Z,102390.56
2023-01-13T08:29:49.711Z,102368.78
2023-01-13T08:34:52.769Z,102363.91
2023-01-13T08:39:58.144Z,102374.97
2023-01-13T08:45:03.079Z,102369.91
2023-01-13T08:50:11.883Z,102366.16
2023-01-13T08:55:17.528Z,102390.81
2023-01-13T09:05:39.146Z,102416.25
2023-01-13T09:10:41.354Z,102420.88
2023-01-13T09:15:47.379Z,102423.75
2023-01-13T09:20:59.644Z,102423.09
2023-01-13T09:26:12.012Z,102423.88
2023-01-13T09:31:15.627Z,102424.28
2023-01-13T09:36:20.487Z,102427.34
2023-01-13T09:41:50.102Z,102438.56
2023-01-13T09:47:07.123Z,102435.34
2023-01-13T09:52:28.588Z,102462.84
2023-01-13T09:57:34.619Z,102454.94
2023-01-13T10:02:50.125Z,102437.81
2023-01-13T10:08:13.121Z,102426.06
2023-01-13T10:13:22.313Z,102435.78
2023-01-13T10:19:01.962Z,102431.66
2023-01-13T10:24:18.391Z,102443.78
2023-01-13T10:29:34.297Z,102433.50
2023-01-13T10:34:50.542Z,102434.50
2023-01-13T10:39:56.699Z,102422.88
2023-01-13T10:45:17.530Z,102423.72
2023-01-13T10:50:30.130Z,102426.53
2023-01-13T10:55:37.981Z,102415.09
2023-01-13T11:01:10.432Z,102396.56
2023-01-13T11:06:48.900Z,102393.16
2023-01-13T11:11:56.892Z,102387.69
2023-01-13T11:17:32.946Z,102395.97
2023-01-13T11:22:47.951Z,102388.44
2023-01-13T11:28:00.918Z,102384.53
2023-01-13T11:33:10.196Z,102380.16
2023-01-13T11:38:35.605Z,102371.50
2023-01-13T11:44:18.123Z,102364.19
2023-01-13T11:49:37.151Z,102379.09
2023-01-13T11:55:08.912Z,102378.50
2023-01-13T12:00:37.055Z,102366.44
2023-01-13T12:06:11.122Z,102353.59
2023-01-13T12:11:36.655Z,102361.63
2023-01-13T12:16:48.969Z,102338.50
2023-01-13T12:22:24.134Z,102344.31
2023-01-13T12:27:57.703Z,102345.13
2023-01-13T12:33:15.465Z,102350.91
2023-01-13T12:38:21.307Z,102322.81
2023-01-13T12:43:43.718Z,102306.75
2023-01-13T12:48:46.904Z,102299.03
2023-01-13T12:53:48.909Z,102285.22
2023-01-13T12:58:53.398Z,102293.53
2023-01-13T13:04:22.094Z,102301.50
2023-01-13T13:09:56.502Z,102292.44
2023-01-13T13:15:03.207Z,102290.81
2023-01-13T13:20:46.205Z,102293.81
2023-01-13T13:26:18.017Z,102301.78
2023-01-13T13:31:25.805Z,102302.38
2023-01-13T13:36:45.531Z,102304.34
2023-01-13T13:42:11.618Z,102289.69
2023-01-13T13:47:15.032Z,102308.59
2023-01-13T13:52:23.215Z,102315.22
2023-01-13T13:57:40.515Z,102303.38
2023-01-13T14:02:53.026Z,102288.81
2023-01-13T14:08:03.340Z,102297.09
2023-01-13T14:13:34.252Z,102294.63
2023-01-13T14:18:45.872Z,102289.13
2023-01-13T14:23:58.442Z,102287.19
2023-01-13T14:29:18.669Z,102293.25
2023-01-13T14:34:32.439Z,102279.41
2023-01-13T14:39:45.958Z,102287.69
2023-01-13T14:44:51.095Z,102297.03
2023-01-13T14:49:59.603Z,102325.69
2023-01-13T14:55:30.831Z,102325.66
2023-01-13T15:00:35.853Z,102332.78
2023-01-13T15:05:40.573Z,102336.53
2023-01-13T15:10:56.939Z,102321.03
2023-01-13T15:16:02.753Z,102324.78
2023-01-13T15:21:08.053Z,102337.16
2023-01-13T15:26:26.908Z,102347.84
2023-01-13T15:31:29.131Z,102350.59
2023-01-13T15:36:33.145Z,102347.22
2023-01-13T15:41:56.682Z,102338.81
2023-01-13T15:47:05.177Z,102339.44
2023-01-13T15:52:28.705Z,102328.34
2023-01-13T15:57:36.395Z,102335.94
2023-01-13T16:02:40.350Z,102339.06
2023-01-13T16:07:43.195Z,102344.13
2023-01-13T16:12:46.467Z,102357.75
2023-01-13T16:17:56.882Z,102368.53
2023-01-13T16:23:02.032Z,102362.34
2023-01-13T16:28:04.147Z,102359.41
2023-01-13T16:33:06.337Z,102364.44
2023-01-13T16:38:19.658Z,102370.03
2023-01-13T16:43:28.870Z,102375.38
2023-01-13T16:48:31.759Z,102384.03
2023-01-13T16:53:34.839Z,102385.84
2023-01-13T16:58:37.824Z,102377.78
2023-01-13T17:03:43.235Z,102389.75
2023-01-13T17:08:51.104Z,102404.44
2023-01-13T17:14:18.887Z,102405.69
2023-01-13T17:19:30.035Z,102404.75
2023-01-13T17:24:36.256Z,102414.44
2023-01-13T17:29:39.145Z,102419.56
2023-01-13T17:34:44.524Z,102430.69
2023-01-13T17:39:48.722Z,102428.94
2023-01-13T17:44:55.367Z,102457.53
2023-01-13T17:49:59.872Z,102455.44
2023-01-13T17:55:08.054Z,102459.63
2023-01-13T18:00:13.378Z,102466.66
2023-01-13T18:05:22.519Z,102474.16
2023-01-13T18:10:24.855Z,102489.88
2023-01-13T18:15:27.565Z,102493.84
2023-01-13T18:20:50.261Z,102491.94
2023-01-13T18:26:12.452Z,102489.72
2023-01-13T18:31:19.013Z,102501.41
2023-01-13T18:36:47.891Z,102508.16
2023-01-13T18:42:10.043Z,102518.84
2023-01-13T18:47:14.982Z,102525.63
2023-01-13T18:52:22.791Z,102534.72
2023-01-13T18:57:28.847Z,102526.88
2023-01-13T19:02:35.339Z,102536.81
2023-01-13T19:13:09.410Z,102538.22
2023-01-13T19:18:16.114Z,102537.81
2023-01-13T19:23:49.434Z,102534.38
2023-01-13T19:28:54.136Z,102538.56
2023-01-13T19:34:02.145Z,102532.63
2023-01-13T19:39:12.041Z,102541.66
2023-01-13T19:44:34.002Z,102544.72
2023-01-13T19:49:58.530Z,102543.19
2023-01-13T19:55:01.515Z,102553.56
2023-01-13T20:00:07.910Z,102555.16
2023-01-13T20:05:27.612Z,102551.31
2023-01-13T20:10:30.662Z,102556.94
2023-01-13T20:15:34.557Z,102564.72
2023-01-13T20:20:41.233Z,102562.00
2023-01-13T20:25:53.193Z,102554.28
2023-01-13T20:30:56.394Z,102557.44
2023-01-13T20:35:59.817Z,102549.09
2023-01-13T20:41:26.232Z,102543.50
2023-01-13T20:46:32.428Z,102538.78
2023-01-13T20:51:36.275Z,102524.75
2023-01-13T20:56:40.729Z,102518.97
2023-01-13T21:01:54.280Z,102526.59
2023-01-13T21:07:04.469Z,102522.47
2023-01-13T21:12:28.336Z,102529.63
2023-01-13T21:17:53.226Z,102526.69
2023-01-13T21:22:55.770Z,102543.28
2023-01-13T21:28:08.170Z,102558.13
2023-01-13T21:33:14.140Z,102560.41
2023-01-13T21:38:20.317Z,102559.97
2023-01-13T21:43:41.855Z,102561.41
2023-01-13T21:48:48.425Z,102556.81
2023-01-13T21:53:52.634Z,102578.59
2023-01-13T21:59:01.224Z,102577.75
2023-01-13T22:04:13.766Z,102570.88
2023-01-13T22:09:16.543Z,102572.16
2023-01-13T22:14:19.821Z,102579.09
2023-01-13T22:19:26.151Z,102584.16
2023-01-13T22:24:36.006Z,102586.03
2023-01-13T22:29:38.476Z,102595.28
2023-01-13T22:34:45.245Z,102591.72
2023-01-13T22:39:53.351Z,102588.19
2023-01-13T22:45:07.595Z,102598.44
2023-01-13T22:50:26.231Z,102602.22
2023-01-13T23:00:48.852Z,102611.44
2023-01-13T23:05:58.108Z,102612.50
2023-01-13T23:11:08.979Z,102610.19
2023-01-13T23:16:20.303Z,102607.06
2023-01-13T23:21:31.441Z,102603.72
2023-01-13T23:26:37.760Z,102603.94
2023-01-13T23:31:41.673Z,102622.34
2023-01-13T23:36:51.109Z,102618.75
2023-01-13T23:41:58.285Z,102630.88
2023-01-13T23:47:30.337Z,102617.50
2023-01-13T23:52:38.949Z,102620.22
2023-01-13T23:57:44.508Z,102611.25
